Home > Products > Valid Products > TAF

000
FTUS43 KJKL 271736
TAFSME
TAF
KSME 271736Z 2718/2818 23007KT P6SM SCT035
     FM272200 VRB03KT P6SM VCTS SCT045CB BKN200
     FM280300 VRB03KT P6SM BKN100=



000
FTUS43 KJKL 271736
TAFJKL
TAF
KJKL 271736Z 2718/2818 VRB03KT P6SM SCT035
     FM280000 VRB03KT P6SM BKN200
     FM280600 VRB03KT P6SM BKN100=



000
FTUS43 KJKL 271736
TAFLOZ
TAF
KLOZ 271736Z 2718/2818 21007KT P6SM SCT035
     FM272300 VRB03KT P6SM VCTS SCT045CB BKN200
     FM280300 VRB03KT P6SM BKN100=



000
FTUS43 KJKL 271120
TAFSME
TAF
KSME 271120Z 2712/2812 18004KT P6SM OVC024
     FM271600 22007KT P6SM FEW030 SCT060 SCT250=



000
FTUS43 KJKL 271120
TAFJKL
TAF
KJKL 271120Z 2712/2812 VRB03KT P6SM OVC015
     FM271600 23004KT P6SM FEW030 SCT060 SCT250=



000
FTUS43 KJKL 271120
TAFLOZ
TAF
KLOZ 271120Z 2712/2812 21006KT P6SM SCT250
     FM271600 22007KT P6SM FEW030 SCT060 SCT250=



000
FTUS43 KJKL 271120
TAFLOZ
TAF
KLOZ 271120Z 2712/2812 21006KT P6SM SCT250
     FM271600 22007KT P6SM FEW030 SCT060 SCT250=



000
FTUS43 KJKL 271120
TAFSME
TAF
KSME 271120Z 2712/2812 18004KT P6SM OVC024
     FM271600 22007KT P6SM FEW030 SCT060 SCT250=



000
FTUS43 KJKL 271120
TAFJKL
TAF
KJKL 271120Z 2712/2812 VRB03KT P6SM OVC015
     FM271600 23004KT P6SM FEW030 SCT060 SCT250=



000
FTUS43 KJKL 270939 AAB
TAFSME
TAF AMD
KSME 270939Z 2710/2806 19003KT P6SM SCT018 SCT029 BKN050
      TEMPO 2710/2712 4SM BR
     FM271600 22007KT P6SM FEW030 SCT060 SCT250=



000
FTUS43 KJKL 270800 AAD
TAFJKL
TAF AMD
KJKL 270800Z 2708/2806 00000KT P6SM BKN020 OVC026
     FM271600 23004KT P6SM FEW030 SCT060 SCT250=



000
FTUS43 KJKL 270649 AAC
TAFLOZ
TAF AMD
KLOZ 270649Z 2707/2806 18003KT P6SM SCT020 BKN030
      TEMPO 2709/2712 4SM BR
     FM271600 22007KT P6SM FEW030 SCT060 SCT250=



000
FTUS43 KJKL 270649 AAC
TAFLOZ
TAF AMD
KLOZ 270649Z 2707/2806 18003KT P6SM SCT020 BKN030
      TEMPO 2709/2712 4SM BR
     FM271600 22007KT P6SM FEW030 SCT060 SCT250=



000
FTUS43 KJKL 270639 AAB
TAFLOZ
TAF AMD
KLOZ 270639Z 2707/2806 18003KT P6SM SCT020 BKN030
      TEMPO 2709/2712 4SM BR
     FM271600 22007KT P6SM FEW030 SCT060 SCT250=



000
FTUS43 KJKL 270639 AAB
TAFLOZ
TAF AMD
KLOZ 270639Z 2707/2806 18003KT P6SM SCT020 BKN030
      TEMPO 2709/2712 4SM BR
     FM271600 22007KT P6SM FEW030 SCT060 SCT250=



000
FTUS43 KJKL 270618 AAA
TAFSME
TAF AMD
KSME 270618Z 2706/2806 24003KT P6SM SCT015 OVC022
      TEMPO 2709/2712 4SM BR
     FM271600 22007KT P6SM FEW030 SCT060 SCT250=



000
FTUS43 KJKL 270618 AAA
TAFLOZ
TAF AMD
KLOZ 270618Z 2706/2806 20005KT P6SM SCT020 BKN029 BKN040
      TEMPO 2709/2712 4SM BR
     FM271600 22007KT P6SM FEW030 SCT060 SCT250=



000
FTUS43 KJKL 270618 AAA
TAFLOZ
TAF AMD
KLOZ 270618Z 2706/2806 20005KT P6SM SCT020 BKN029 BKN040
      TEMPO 2709/2712 4SM BR
     FM271600 22007KT P6SM FEW030 SCT060 SCT250=



000
FTUS43 KJKL 270618 AAA
TAFSME
TAF AMD
KSME 270618Z 2706/2806 24003KT P6SM SCT015 OVC022
      TEMPO 2709/2712 4SM BR
     FM271600 22007KT P6SM FEW030 SCT060 SCT250=



000
FTUS43 KJKL 270520
TAFJKL
TAF
KJKL 270520Z 2706/2806 00000KT P6SM FEW040
     FM271600 23004KT P6SM FEW030 SCT060 SCT250=



000
FTUS43 KJKL 270520
TAFLOZ
TAF
KLOZ 270520Z 2706/2806 20005KT P6SM SCT022
      TEMPO 2709/2712 4SM BR
     FM271600 22007KT P6SM FEW030 SCT060 SCT250=



000
FTUS43 KJKL 270520
TAFSME
TAF
KSME 270520Z 2706/2806 20004KT P6SM SCT023
      TEMPO 2709/2712 4SM BR
     FM271600 22007KT P6SM FEW030 SCT060 SCT250=



000
FTUS43 KJKL 270520
TAFJKL
TAF
KJKL 270520Z 2706/2806 00000KT P6SM FEW040
     FM271600 23004KT P6SM FEW030 SCT060 SCT250=



000
FTUS43 KJKL 270520
TAFSME
TAF
KSME 270520Z 2706/2806 20004KT P6SM SCT023
      TEMPO 2709/2712 4SM BR
     FM271600 22007KT P6SM FEW030 SCT060 SCT250=



000
FTUS43 KJKL 270520
TAFLOZ
TAF
KLOZ 270520Z 2706/2806 20005KT P6SM SCT022
      TEMPO 2709/2712 4SM BR
     FM271600 22007KT P6SM FEW030 SCT060 SCT250=



000
FTUS43 KJKL 270240 AAA
TAFLOZ
TAF AMD
KLOZ 270240Z 2703/2724 19005KT P6SM SCT045 BKN150
      TEMPO 2709/2712 4SM BR
     FM271600 22007KT P6SM SCT060 SCT250=



000
FTUS43 KJKL 262331
TAFSME
TAF
KSME 262331Z 2700/2724 28010G16KT P6SM SCT030 SCT060 BKN150
      TEMPO 2700/2702 4SM TSRA OVC035CB
     FM270300 21003KT P6SM BKN200
      TEMPO 2709/2712 4SM BR
     FM271600 22007KT P6SM SCT060 SCT250=



000
FTUS43 KJKL 262331
TAFJKL
TAF
KJKL 262331Z 2700/2724 VRB05KT P6SM SCT045 BKN150
      TEMPO 2701/2704 4SM TSRA BR OVC035CB
     FM270500 22004KT P6SM BKN200
     FM271600 23004KT P6SM SCT060 SCT250=



000
FTUS43 KJKL 262331
TAFLOZ
TAF
KLOZ 262331Z 2700/2724 19010G18KT P6SM SCT045 BKN150
      TEMPO 2700/2703 4SM TSRA BR OVC035CB
     FM270300 21003KT P6SM BKN200
      TEMPO 2709/2712 4SM BR
     FM271600 22007KT P6SM SCT060 SCT250=



000
FTUS43 KJKL 261732
TAFLOZ
TAF
KLOZ 261732Z 2618/2718 19010G18KT P6SM SCT045 BKN150
      TEMPO 2622/2702 3SM TSRA BR OVC035CB
     FM270300 20003KT P6SM BKN200
     FM271600 22007KT P6SM SCT040 SCT250=



000
FTUS43 KJKL 261732
TAFJKL
TAF
KJKL 261732Z 2618/2718 19006KT P6SM SCT045 BKN150
      TEMPO 2623/2703 3SM TSRA BR OVC035CB
     FM270400 19004KT P6SM BKN200
     FM271600 20004KT P6SM SCT040 SCT250=



000
FTUS43 KJKL 261732
TAFSME
TAF
KSME 261732Z 2618/2718 19010G18KT P6SM SCT045 BKN150
      TEMPO 2622/2702 3SM TSRA BR OVC035CB
     FM270300 21003KT P6SM BKN200
     FM271600 22007KT P6SM SCT040 SCT250=



000
FTUS43 KJKL 261123
TAFSME
TAF
KSME 261123Z 2612/2712 15003KT P6SM SCT090
     FM261600 21009KT P6SM VCTS BKN040CB BKN250
     FM261900 19006KT 3SM -TSRA BKN035CB OVC250
     FM270100 21005KT 5SM SHRA VCTS SCT030CB BKN250=



000
FTUS43 KJKL 261123
TAFLOZ
TAF
KLOZ 261123Z 2612/2712 00000KT P6SM SCT090
     FM261600 21009KT P6SM VCTS BKN040CB BKN250
     FM261900 19006KT 3SM -TSRA BKN035CB OVC250
     FM270100 21005KT 5SM SHRA VCTS SCT030CB BKN250=



000
FTUS43 KJKL 261123
TAFJKL
TAF
KJKL 261123Z 2612/2712 VRB03KT P6SM BKN080 OVC090
     FM261600 20004KT P6SM VCTS BKN040CB BKN250
     FM261900 19006KT 3SM -TSRA BKN035CB OVC250
     FM270100 21005KT 5SM SHRA VCTS SCT030CB BKN250=



000
FTUS43 KJKL 260520
TAFLOZ
TAF
KLOZ 260520Z 2606/2706 28005KT P6SM -RA BKN110
     FM261600 21009KT P6SM VCTS BKN040CB BKN250
     FM261900 19006KT 3SM -TSRA BKN035CB OVC250
     FM270100 21005KT 5SM SHRA VCTS SCT030CB BKN250=



000
FTUS43 KJKL 260520
TAFSME
TAF
KSME 260520Z 2606/2706 00000KT P6SM SCT120
     FM261600 21009KT P6SM VCTS BKN040CB BKN250
     FM261900 19006KT 3SM -TSRA BKN035CB OVC250
     FM270100 21005KT 5SM SHRA VCTS SCT030CB BKN250=



000
FTUS43 KJKL 260520
TAFJKL
TAF
KJKL 260520Z 2606/2706 00000KT P6SM FEW070 OVC090
     FM260700 17003KT P6SM SCT040 BKN150
     FM261600 20004KT P6SM VCTS BKN040CB BKN250
     FM261900 19006KT 3SM -TSRA BKN035CB OVC250
     FM270100 21005KT 5SM SHRA VCTS SCT030CB BKN250=



000
FTUS43 KJKL 260301 AAB
TAFJKL
TAF AMD
KJKL 260301Z 2603/2624 24004KT P6SM VCSH BKN050
     FM260700 17003KT P6SM SCT040 BKN150
     FM261600 20004KT P6SM VCTS BKN040CB BKN250=



000
FTUS43 KJKL 260300 AAA
TAFSME
TAF AMD
KSME 260300Z 2603/2624 21007KT P6SM VCSH BKN050
     FM260600 18003KT P6SM SCT040 BKN150
     FM261600 21009KT P6SM VCTS BKN040CB BKN250=



000
FTUS43 KJKL 260300 AAA
TAFLOZ
TAF AMD
KLOZ 260300Z 2603/2624 21007KT P6SM VCSH BKN050
     FM260600 18003KT P6SM SCT040 BKN150
     FM261600 21009KT P6SM VCTS BKN040CB BKN250=



000
FTUS43 KJKL 260300 AAA
TAFLOZ
TAF AMD
KLOZ 260300Z 2603/2624 21007KT P6SM VCSH BKN050
     FM260600 18003KT P6SM SCT040 BKN150
     FM261600 21009KT P6SM VCTS BKN040CB BKN250=



000
FTUS43 KJKL 252320
TAFSME
TAF
KSME 252320Z 2600/2624 21007KT P6SM VCSH BKN050
      TEMPO 2601/2605 5SM -SHRA BR
     FM260600 18003KT P6SM SCT040 BKN150
     FM261600 21009KT P6SM VCTS BKN040CB BKN250=



000
FTUS43 KJKL 252320
TAFJKL
TAF
KJKL 252320Z 2600/2624 24004KT P6SM VCSH BKN050
      TEMPO 2603/2605 5SM -SHRA BR
     FM260700 17003KT P6SM SCT040 BKN150
     FM261600 20004KT P6SM VCTS BKN040CB BKN250=



000
FTUS43 KJKL 252320
TAFLOZ
TAF
KLOZ 252320Z 2600/2624 21007KT P6SM VCSH BKN050
      TEMPO 2602/2605 5SM -SHRA BR
     FM260600 18003KT P6SM SCT040 BKN150
     FM261600 21009KT P6SM VCTS BKN040CB BKN250=



000
FTUS43 KJKL 251727 CCA
TAFSME
TAF COR
KSME 251727Z 2518/2618 21007KT P6SM VCSH BKN050
      TEMPO 2602/2606 5SM -SHRA BR
     FM260600 18003KT P6SM SCT040 BKN150
     FM261600 21009KT P6SM VCTS BKN040CB BKN250=



000
FTUS43 KJKL 251726 CCA
TAFLOZ
TAF COR
KLOZ 251726Z 2518/2618 21007KT P6SM VCSH BKN050
      TEMPO 2602/2606 5SM -SHRA BR
     FM260600 18003KT P6SM SCT040 BKN150
     FM261600 21009KT P6SM VCTS BKN040CB BKN250=



000
FTUS43 KJKL 251725
TAFLOZ
TAF
KLOZ 251725Z 2518/2618 21007KT P6SM VCSH BKN050
      TEMPO 2602/2606 5SM -SHRA BR
     FM260700 18003KT P6SM SCT040 BKN150
     FM261600 21009KT P6SM VCTS BKN040CB BKN250=



000
FTUS43 KJKL 251725
TAFSME
TAF
KSME 251725Z 2518/2618 21007KT P6SM VCSH BKN050
      TEMPO 2602/2606 5SM -SHRA BR
     FM260700 18003KT P6SM SCT040 BKN150
     FM261600 21009KT P6SM VCTS BKN040CB BKN250=



000
FTUS43 KJKL 251725
TAFJKL
TAF
KJKL 251725Z 2518/2618 24004KT P6SM VCSH BKN050
      TEMPO 2603/2607 5SM -SHRA BR
     FM260700 17003KT P6SM SCT040 BKN150
     FM261600 20004KT P6SM VCTS BKN040CB BKN250=



000
FTUS43 KJKL 251127
TAFJKL
TAF
KJKL 251127Z 2512/2612 VRB05KT P6SM SCT250
     FM251700 20009KT P6SM VCTS BKN050CB
     FM252100 22007G16KT 5SM -TSRA SCT020 BKN040CB
     FM260100 22006KT P6SM VCTS BKN040CB=



000
FTUS43 KJKL 251127
TAFLOZ
TAF
KLOZ 251127Z 2512/2612 VRB05KT P6SM SCT250
     FM251600 20009G17KT P6SM VCTS BKN050CB
     FM252100 21010G20KT 5SM -TSRA SCT020 BKN040CB
     FM260100 22006KT P6SM VCTS BKN040CB=



000
FTUS43 KJKL 251127
TAFSME
TAF
KSME 251127Z 2512/2612 VRB06KT P6SM SCT250
     FM251500 20008G17KT 5SM -TSRA BKN050CB OVC100
     FM251900 20010G20KT 2SM TSRA BKN030CB OVC100
     FM252300 21007KT P6SM VCTS SCT030CB BKN050=



000
FTUS43 KJKL 250539
TAFLOZ
TAF
KLOZ 250539Z 2506/2606 VRB05KT P6SM SCT250
     FM251600 20009G17KT P6SM VCTS BKN050CB
     FM252100 21010G20KT 5SM -TSRA SCT020 BKN040CB
     FM260100 22006KT P6SM VCTS BKN040CB=



000
FTUS43 KJKL 250539
TAFSME
TAF
KSME 250539Z 2506/2606 VRB06KT P6SM SCT250
     FM251500 20008G17KT 5SM -TSRA BKN050CB OVC100
     FM251900 20010G20KT 2SM TSRA BKN030CB OVC100
     FM252300 21007KT P6SM VCTS SCT030CB BKN050=



000
FTUS43 KJKL 250539
TAFJKL
TAF
KJKL 250539Z 2506/2606 VRB05KT P6SM SCT250
     FM251700 20009KT P6SM VCTS BKN050CB
     FM252100 22007G16KT 5SM -TSRA SCT020 BKN040CB
     FM260100 22006KT P6SM VCTS BKN040CB=



000
FTUS43 KJKL 242320
TAFJKL
TAF
KJKL 242320Z 2500/2524 VRB05KT P6SM FEW250
     FM251700 20009KT P6SM VCTS BKN060CB
     FM252200 22009G20KT 5SM -TSRA BKN030CB=



000
FTUS43 KJKL 242320
TAFSME
TAF
KSME 242320Z 2500/2524 VRB06KT P6SM FEW250
     FM251500 20009G20KT 5SM -TSRA BKN050CB BKN100
     FM251900 20010G20KT 2SM TSRA BKN020CB BKN100
     FM252100 21009KT P6SM VCTS BKN050CB=



000
FTUS43 KJKL 242320
TAFLOZ
TAF
KLOZ 242320Z 2500/2524 VRB05KT P6SM FEW250
     FM251600 20009KT P6SM VCTS BKN060CB
     FM252100 21009G20KT 5SM -TSRA BKN030CB=



000
FTUS43 KJKL 242320
TAFSME
TAF
KSME 242320Z 2500/2524 VRB06KT P6SM FEW250
     FM251500 20009G20KT 5SM -TSRA BKN050CB BKN100
     FM251900 20010G20KT 2SM TSRA BKN020CB BKN100
     FM252100 21009KT P6SM VCTS BKN050CB=



000
FTUS43 KJKL 242320
TAFJKL
TAF
KJKL 242320Z 2500/2524 VRB05KT P6SM FEW250
     FM251700 20009KT P6SM VCTS BKN060CB
     FM252200 22009G20KT 5SM -TSRA BKN030CB=



000
FTUS43 KJKL 242320
TAFLOZ
TAF
KLOZ 242320Z 2500/2524 VRB05KT P6SM FEW250
     FM251600 20009KT P6SM VCTS BKN060CB
     FM252100 21009G20KT 5SM -TSRA BKN030CB=



    US Dept of Commerce
    National Oceanic and Atmospheric Administration
    National Weather Service
    1325 East West Highway
    Silver Spring, MD 20910
    Page Author: NWS Internet Services Team
Disclaimer
Information Quality
Credits
Glossary
Privacy Policy
Freedom of Information Act (FOIA)
About Us
Career Opportunities